Welcome to our new website - Welkom op onze vernieuwde website - Bienvenue sur notre nouveau site web - Willkommen auf unserer neuen Website

Onweer radar Meer informatie blitzortung!


Regen radar Meer informatie rain snow radar


Andere websites:

Onze vorige site

Leuven Template


METAR rapporten vliegvelden

   
EHGG - Leeuwarden
Gewijzigd: 20-01-2021 17:25
Gedeeltelijk bewolkt  
Gedeeltelijk bewolkt  
   Wind: Zuiden 25.9 km/h
Wind: Zuiden 25.9 km/h
Temperatuur: 9°C
Voelt als: 6°C
Dauwpunt: 3°C
Vochtigheid: 66%
Barometer: 992 hPa
Bewolking: Gedeeltelijk bewolkt
Zicht: meer dan 10 km
Bewolking: Gedeeltelijk bewolkt
EHGG 201625Z AUTO 18014KT 140V210 9999 NSC 09/03 Q0992 NOSIG
EHGG - Terschelling
Gewijzigd: 20-01-2021 17:25
Gedeeltelijk bewolkt  
Gedeeltelijk bewolkt  
   Wind: Zuiden 25.9 km/h
Wind: Zuiden 25.9 km/h
Temperatuur: 9°C
Voelt als: 6°C
Dauwpunt: 3°C
Vochtigheid: 66%
Barometer: 992 hPa
Bewolking: Gedeeltelijk bewolkt
Zicht: meer dan 10 km
Bewolking: Gedeeltelijk bewolkt
EHGG 201625Z AUTO 18014KT 140V210 9999 NSC 09/03 Q0992 NOSIG
EHAM - Amsterdam
Gewijzigd: 20-01-2021 17:25
Helder  
Helder  
   Wind: Zuiden 33.3 km/h
Wind: Zuiden 33.3 km/h
Temperatuur: 9°C
Voelt als: 5°C
Dauwpunt: 2°C
Vochtigheid: 62%
Barometer: 991 hPa
Zicht: meer dan 10 km
Bewolking: Helder
EHAM 201625Z 19018KT CAVOK 09/02 Q0991 NOSIG
EHBK - Maastricht
Gewijzigd: 20-01-2021 17:25
Gedeeltelijk bewolkt  
Gedeeltelijk bewolkt  
   Wind: Zuiden 22.2 km/h
Wind: Zuiden 22.2 km/h
Temperatuur: 10°C
Voelt als: 7°C
Dauwpunt: 2°C
Vochtigheid: 58%
Barometer: 996 hPa
Bewolking: Gedeeltelijk bewolkt
Zicht: meer dan 10 km
Bewolking: Gedeeltelijk bewolkt
EHBK 201625Z AUTO 19012KT 150V220 9999 NSC 10/02 Q0996 NOSIG
  

Script ontwikkeld door  Saratoga-weather.org Aangepast voor de template door  Weerstation Leuven

U vindt ons ook hier:

European Weather Network

Weather Underground

AWEKAS

Apparatuur in gebruik:

Weerstation
Davis VP2

Weerprogramma
Cumulus

Davis VP2

Cumulus